Time;durP1;ratioP1;P1;durP2;ratioP2;P2;SDS_P1;SDS_P2;PMS_P1;PMS_P2;Temp;Humidity;BMP_temperature;BMP_pressure;BME280_temperature;BME280_humidity;BME280_pressure;Samples;Min_cycle;Max_cycle;Signal;HPM_P1;HPM_P2
2023/10/06 00:02:28;;;;;;;4.55;2.35;;;;;;;;;;6285375;22;20022;-79
2023/10/06 00:04:54;;;;;;;6.10;2.47;;;;;;;;;;6311547;22;20012;-79
2023/10/06 00:07:23;;;;;;;4.53;2.28;;;;;;;;;;6313345;22;20039;-80
2023/10/06 00:09:49;;;;;;;5.07;2.70;;;;;;;;;;6285420;22;20022;-80
2023/10/06 00:12:16;;;;;;;5.38;1.98;;;;;;;;;;6260690;22;20012;-80
2023/10/06 00:14:43;;;;;;;3.97;2.33;;;;;;;;;;6285186;22;20038;-80
2023/10/06 00:17:15;;;;;;;4.35;2.20;;;;;;;;;;6285704;22;20034;-79
2023/10/06 00:19:41;;;;;;;5.38;2.67;;;;;;;;;;6288032;22;20015;-79
2023/10/06 00:22:40;;;;;;;6.03;2.47;;;;;;;;;;6287320;22;20011;-79
2023/10/06 00:24:59;;;;;;;4.88;2.90;;;;;;;;;;6280482;22;20047;-79
2023/10/06 00:27:29;;;;;;;5.13;2.75;;;;;;;;;;6286011;22;20084;-79
2023/10/06 00:29:55;;;;;;;6.00;2.78;;;;;;;;;;6314227;22;20068;-79
2023/10/06 00:32:22;;;;;;;4.68;2.78;;;;;;;;;;6286148;22;20279;-79
2023/10/06 00:34:48;;;;;;;6.22;2.97;;;;;;;;;;6261113;22;20023;-79
2023/10/06 00:37:15;;;;;;;5.97;2.83;;;;;;;;;;6261118;22;20049;-80
2023/10/06 00:39:42;;;;;;;6.97;2.85;;;;;;;;;;6287268;22;20011;-80
2023/10/06 00:42:08;;;;;;;4.90;2.97;;;;;;;;;;6286547;22;20086;-80
2023/10/06 00:44:35;;;;;;;4.13;2.90;;;;;;;;;;6287269;22;20049;-80
2023/10/06 00:47:10;;;;;;;5.38;2.85;;;;;;;;;;6286266;22;20413;-80
2023/10/06 00:49:36;;;;;;;7.93;3.30;;;;;;;;;;6288023;22;20097;-79
2023/10/06 00:52:06;;;;;;;6.88;3.53;;;;;;;;;;6287165;22;20011;-79
2023/10/06 00:54:35;;;;;;;6.43;3.65;;;;;;;;;;6287972;22;20065;-79
2023/10/06 00:57:08;;;;;;;4.57;3.00;;;;;;;;;;6286949;22;20333;-79
2023/10/06 00:59:35;;;;;;;6.20;2.92;;;;;;;;;;6315526;22;20348;-79
2023/10/06 01:02:01;;;;;;;8.65;3.45;;;;;;;;;;6287623;22;20018;-79
2023/10/06 01:04:33;;;;;;;7.63;3.60;;;;;;;;;;6287209;22;20463;-79
2023/10/06 01:07:00;;;;;;;6.82;3.15;;;;;;;;;;6286906;22;20015;-79
2023/10/06 01:09:30;;;;;;;7.65;3.92;;;;;;;;;;6262368;22;20025;-79
2023/10/06 01:12:02;;;;;;;7.03;3.92;;;;;;;;;;6287988;22;20339;-79
2023/10/06 01:14:33;;;;;;;8.48;3.15;;;;;;;;;;6262010;22;20019;-79
2023/10/06 01:17:16;;;;;;;6.57;3.53;;;;;;;;;;6315349;22;20030;-79
2023/10/06 01:19:49;;;;;;;7.88;3.65;;;;;;;;;;6315340;22;20011;-79
2023/10/06 01:22:33;;;;;;;6.70;4.13;;;;;;;;;;6287896;22;20045;-79
2023/10/06 01:24:59;;;;;;;9.52;3.75;;;;;;;;;;6314234;22;20382;-79
2023/10/06 01:27:29;;;;;;;5.60;3.78;;;;;;;;;;6289701;22;20015;-79
2023/10/06 01:32:49;;;;;;;5.65;3.28;;;;;;;;;;6288555;22;20038;-79
2023/10/06 01:35:20;;;;;;;10.35;4.25;;;;;;;;;;6289507;22;20015;-79
2023/10/06 01:40:45;;;;;;;6.13;3.30;;;;;;;;;;6280635;22;20015;-79
2023/10/06 01:43:12;;;;;;;4.93;3.35;;;;;;;;;;6286849;22;20019;-79
2023/10/06 01:45:43;;;;;;;7.15;4.00;;;;;;;;;;6288119;22;20019;-79
2023/10/06 01:50:36;;;;;;;8.73;3.47;;;;;;;;;;6315572;22;20026;-80
2023/10/06 01:53:06;;;;;;;6.65;4.10;;;;;;;;;;6289263;22;20016;-80
2023/10/06 01:55:37;;;;;;;7.28;3.65;;;;;;;;;;6289087;22;20011;-80
2023/10/06 01:58:04;;;;;;;6.25;3.67;;;;;;;;;;6290416;22;20015;-79
2023/10/06 02:00:35;;;;;;;5.72;3.75;;;;;;;;;;6264841;22;20036;-79
2023/10/06 02:03:03;;;;;;;5.93;4.15;;;;;;;;;;6291732;22;20019;-80
2023/10/06 02:05:29;;;;;;;9.15;4.10;;;;;;;;;;6292377;22;20019;-80
2023/10/06 02:08:00;;;;;;;7.32;4.15;;;;;;;;;;6292552;22;20098;-80
2023/10/06 02:10:26;;;;;;;7.38;3.60;;;;;;;;;;6318880;22;20026;-80
2023/10/06 02:12:52;;;;;;;8.25;3.92;;;;;;;;;;6290468;22;20045;-80
2023/10/06 02:15:19;;;;;;;6.50;4.00;;;;;;;;;;6317164;22;20133;-79
2023/10/06 02:17:45;;;;;;;6.53;3.53;;;;;;;;;;6288813;22;20022;-79
2023/10/06 02:20:17;;;;;;;11.30;4.00;;;;;;;;;;6318754;22;20011;-79
2023/10/06 02:22:43;;;;;;;5.57;3.67;;;;;;;;;;6319791;22;20049;-79
2023/10/06 02:25:10;;;;;;;6.25;3.97;;;;;;;;;;6319698;22;20015;-79
2023/10/06 02:27:44;;;;;;;8.13;4.75;;;;;;;;;;6317488;22;20011;-80
2023/10/06 02:30:13;;;;;;;7.15;3.63;;;;;;;;;;6317083;22;20011;-79
2023/10/06 02:32:39;;;;;;;8.05;3.65;;;;;;;;;;6316041;22;20437;-79
2023/10/06 02:35:07;;;;;;;7.18;3.90;;;;;;;;;;6287356;22;20018;-79
2023/10/06 02:37:33;;;;;;;5.53;3.97;;;;;;;;;;6314510;22;20085;-79
2023/10/06 02:39:59;;;;;;;5.60;3.88;;;;;;;;;;6289822;22;20038;-79
2023/10/06 02:42:25;;;;;;;6.38;3.53;;;;;;;;;;6292671;22;20038;-79
2023/10/06 02:44:53;;;;;;;8.48;4.05;;;;;;;;;;6291737;22;20018;-79
2023/10/06 02:47:21;;;;;;;7.97;4.95;;;;;;;;;;6291877;22;20047;-79
2023/10/06 02:49:59;;;;;;;11.65;5.55;;;;;;;;;;6291722;22;20041;-79
2023/10/06 02:52:37;;;;;;;6.78;4.00;;;;;;;;;;6314825;22;20015;-79
2023/10/06 02:57:34;;;;;;;6.97;4.10;;;;;;;;;;6314262;22;20038;-79
2023/10/06 03:00:28;;;;;;;7.90;4.57;;;;;;;;;;6312916;22;20019;-79
2023/10/06 03:02:46;;;;;;;7.32;4.13;;;;;;;;;;6315896;22;20021;-80
2023/10/06 03:05:13;;;;;;;6.20;4.22;;;;;;;;;;6290584;22;20078;-79
2023/10/06 03:07:39;;;;;;;8.40;4.80;;;;;;;;;;6318456;22;20011;-79
2023/10/06 03:10:09;;;;;;;9.18;4.28;;;;;;;;;;6289055;22;20090;-79
2023/10/06 03:12:39;;;;;;;7.80;4.70;;;;;;;;;;6289690;22;20015;-79
2023/10/06 03:15:26;;;;;;;9.18;4.47;;;;;;;;;;6289327;22;20011;-80
2023/10/06 03:17:51;;;;;;;7.72;4.32;;;;;;;;;;6288739;22;20011;-80
2023/10/06 03:20:22;;;;;;;7.90;4.35;;;;;;;;;;6287860;22;20015;-80
2023/10/06 03:22:51;;;;;;;8.75;4.00;;;;;;;;;;6289212;22;20011;-80
2023/10/06 03:25:18;;;;;;;7.82;4.22;;;;;;;;;;6317608;22;20019;-80
2023/10/06 03:27:53;;;;;;;7.30;3.90;;;;;;;;;;6317642;22;20084;-80
2023/10/06 03:30:29;;;;;;;9.35;4.20;;;;;;;;;;6319158;22;20125;-80
2023/10/06 03:32:55;;;;;;;8.73;4.57;;;;;;;;;;6316917;22;20021;-80
2023/10/06 03:35:35;;;;;;;7.75;3.78;;;;;;;;;;6315802;22;20054;-79
2023/10/06 03:46:03;;;;;;;7.22;3.67;;;;;;;;;;6290128;22;20019;-79
2023/10/06 03:48:29;;;;;;;7.25;4.32;;;;;;;;;;6318184;22;20031;-79
2023/10/06 03:50:56;;;;;;;9.48;4.57;;;;;;;;;;6290437;22;20021;-80
2023/10/06 03:53:28;;;;;;;6.15;3.53;;;;;;;;;;6319609;22;20018;-80
2023/10/06 03:55:56;;;;;;;7.43;4.85;;;;;;;;;;6291190;22;20067;-79
2023/10/06 03:58:28;;;;;;;10.82;5.03;;;;;;;;;;6319550;22;20008;-79
2023/10/06 04:00:54;;;;;;;9.82;3.78;;;;;;;;;;6318503;22;20011;-79
2023/10/06 04:03:21;;;;;;;6.18;3.95;;;;;;;;;;6319665;22;20015;-79
2023/10/06 04:05:48;;;;;;;10.73;4.05;;;;;;;;;;6319909;22;20015;-79
2023/10/06 04:08:19;;;;;;;6.97;4.07;;;;;;;;;;6319256;22;20050;-79
2023/10/06 04:10:48;;;;;;;12.35;4.13;;;;;;;;;;6320594;22;20011;-79
2023/10/06 04:13:16;;;;;;;8.75;3.97;;;;;;;;;;6290688;22;20062;-79
2023/10/06 04:15:49;;;;;;;7.20;4.72;;;;;;;;;;6319101;22;20011;-79
2023/10/06 04:18:17;;;;;;;6.93;3.55;;;;;;;;;;6291356;22;20011;-79
2023/10/06 04:20:44;;;;;;;8.60;4.60;;;;;;;;;;6290237;22;20057;-79
2023/10/06 04:23:13;;;;;;;8.80;4.40;;;;;;;;;;6289004;22;20022;-80
2023/10/06 04:25:40;;;;;;;6.55;3.65;;;;;;;;;;6318742;22;20377;-80
2023/10/06 04:28:11;;;;;;;7.68;4.07;;;;;;;;;;6291011;22;20023;-79
2023/10/06 04:30:37;;;;;;;6.90;3.90;;;;;;;;;;6291807;22;20015;-79
2023/10/06 04:33:09;;;;;;;9.00;3.80;;;;;;;;;;6290782;22;20340;-79
2023/10/06 04:35:39;;;;;;;7.10;3.45;;;;;;;;;;6317791;22;20007;-79
2023/10/06 04:38:05;;;;;;;10.68;3.60;;;;;;;;;;6318273;22;20074;-79
2023/10/06 04:40:32;;;;;;;7.32;3.72;;;;;;;;;;6291280;22;20039;-79
2023/10/06 04:42:59;;;;;;;5.38;2.90;;;;;;;;;;6291777;22;20019;-79
2023/10/06 04:45:26;;;;;;;7.18;3.67;;;;;;;;;;6318218;22;20015;-79
2023/10/06 04:47:55;;;;;;;7.10;3.47;;;;;;;;;;6315705;22;20019;-79
2023/10/06 04:50:21;;;;;;;7.05;3.63;;;;;;;;;;6287737;22;20078;-79
2023/10/06 04:52:48;;;;;;;9.00;3.28;;;;;;;;;;6262868;22;20015;-79
2023/10/06 04:55:14;;;;;;;4.30;3.30;;;;;;;;;;6287879;22;20478;-79
2023/10/06 04:57:41;;;;;;;5.55;3.17;;;;;;;;;;6316959;22;20029;-79
2023/10/06 05:00:21;;;;;;;7.75;4.45;;;;;;;;;;6289603;22;20386;-79
2023/10/06 05:02:47;;;;;;;7.53;3.63;;;;;;;;;;6315813;22;20034;-79
2023/10/06 05:05:20;;;;;;;5.45;3.63;;;;;;;;;;6316270;22;20090;-79
2023/10/06 05:07:53;;;;;;;5.97;2.60;;;;;;;;;;6316047;22;20405;-79
2023/10/06 05:10:25;;;;;;;5.97;3.20;;;;;;;;;;6317900;22;20013;-79
2023/10/06 05:12:52;;;;;;;6.07;3.17;;;;;;;;;;6317013;22;20059;-79
2023/10/06 05:15:26;;;;;;;6.45;3.35;;;;;;;;;;6315531;22;20055;-79
2023/10/06 05:17:55;;;;;;;5.97;3.35;;;;;;;;;;6314553;22;20033;-82
2023/10/06 05:20:23;;;;;;;9.73;4.32;;;;;;;;;;6283762;22;20521;-80
2023/10/06 05:22:50;;;;;;;6.07;3.88;;;;;;;;;;6313285;22;20022;-79
2023/10/06 05:25:19;;;;;;;7.90;4.07;;;;;;;;;;6313262;22;20009;-79
2023/10/06 05:27:46;;;;;;;5.93;3.20;;;;;;;;;;6311734;22;20014;-79
2023/10/06 05:30:13;;;;;;;5.55;3.55;;;;;;;;;;6311407;22;20016;-79
2023/10/06 05:32:42;;;;;;;10.50;4.90;;;;;;;;;;6313133;22;20011;-79
2023/10/06 05:35:08;;;;;;;7.07;3.45;;;;;;;;;;6311230;22;20015;-79
2023/10/06 05:37:34;;;;;;;9.30;3.70;;;;;;;;;;6283949;22;20022;-79
2023/10/06 05:40:00;;;;;;;7.50;3.83;;;;;;;;;;6311532;22;20015;-79
2023/10/06 05:42:26;;;;;;;6.07;3.00;;;;;;;;;;6312736;22;20015;-79
2023/10/06 05:44:53;;;;;;;7.43;3.53;;;;;;;;;;6311489;22;20034;-79
2023/10/06 05:47:21;;;;;;;6.40;3.60;;;;;;;;;;6269433;22;1075815;-80
2023/10/06 05:49:49;;;;;;;7.18;3.67;;;;;;;;;;6314963;22;20019;-79
2023/10/06 05:52:16;;;;;;;9.10;4.60;;;;;;;;;;6316857;22;20011;-79
2023/10/06 05:54:42;;;;;;;5.20;2.88;;;;;;;;;;6286736;22;20015;-79
2023/10/06 05:57:09;;;;;;;9.00;4.20;;;;;;;;;;6313090;22;20054;-80
2023/10/06 05:59:36;;;;;;;7.07;3.97;;;;;;;;;;6259968;22;20344;-79
2023/10/06 06:02:04;;;;;;;4.82;3.92;;;;;;;;;;6309813;22;20014;-78
2023/10/06 06:04:30;;;;;;;5.63;3.05;;;;;;;;;;6284097;22;20019;-79
2023/10/06 06:07:01;;;;;;;7.35;4.38;;;;;;;;;;6312720;22;20011;-79
2023/10/06 06:09:27;;;;;;;6.90;3.47;;;;;;;;;;6315331;22;20059;-80
2023/10/06 06:11:53;;;;;;;8.40;4.03;;;;;;;;;;6314300;22;20022;-79
2023/10/06 06:14:21;;;;;;;6.55;3.85;;;;;;;;;;6306866;22;20309;-78
2023/10/06 06:16:48;;;;;;;10.45;4.30;;;;;;;;;;6313784;22;20011;-81
2023/10/06 06:19:14;;;;;;;6.35;3.60;;;;;;;;;;6292417;22;20026;-81
2023/10/06 06:21:40;;;;;;;8.88;3.70;;;;;;;;;;6291534;22;20076;-80
2023/10/06 06:24:07;;;;;;;6.57;3.45;;;;;;;;;;6267296;22;20085;-80
2023/10/06 06:26:33;;;;;;;7.63;4.45;;;;;;;;;;6318828;22;20521;-80
2023/10/06 06:29:02;;;;;;;7.43;3.75;;;;;;;;;;6320503;22;20015;-80
2023/10/06 06:31:32;;;;;;;6.15;3.78;;;;;;;;;;6320365;22;20015;-80
2023/10/06 06:33:59;;;;;;;8.05;4.32;;;;;;;;;;6313946;22;20012;-80
2023/10/06 06:36:26;;;;;;;7.45;4.03;;;;;;;;;;6314957;22;20032;-80
2023/10/06 06:38:52;;;;;;;8.15;3.78;;;;;;;;;;6313840;22;20007;-80
2023/10/06 06:41:19;;;;;;;8.40;4.57;;;;;;;;;;6313724;22;20355;-81
2023/10/06 06:43:45;;;;;;;10.25;4.07;;;;;;;;;;6288140;22;20016;-81
2023/10/06 06:46:12;;;;;;;6.93;3.35;;;;;;;;;;6287264;22;20023;-80
2023/10/06 06:48:38;;;;;;;8.75;3.72;;;;;;;;;;6320399;22;20351;-80
2023/10/06 06:51:05;;;;;;;8.32;3.83;;;;;;;;;;6291352;22;20023;-81
2023/10/06 06:53:31;;;;;;;9.65;4.03;;;;;;;;;;6267536;22;20024;-81
2023/10/06 06:55:57;;;;;;;8.40;3.90;;;;;;;;;;6320819;22;20015;-81
2023/10/06 06:58:23;;;;;;;7.25;3.78;;;;;;;;;;6294471;22;20011;-81
2023/10/06 07:00:49;;;;;;;12.63;4.40;;;;;;;;;;6317672;22;20046;-81
2023/10/06 07:03:15;;;;;;;9.50;3.67;;;;;;;;;;6319120;22;20019;-80
2023/10/06 07:05:42;;;;;;;5.22;3.30;;;;;;;;;;6319304;22;20015;-80
2023/10/06 07:08:08;;;;;;;6.03;3.53;;;;;;;;;;6317345;22;20019;-81
2023/10/06 07:10:38;;;;;;;7.70;3.55;;;;;;;;;;6315521;22;20011;-81
2023/10/06 07:13:05;;;;;;;5.88;3.13;;;;;;;;;;6283916;22;20026;-83
2023/10/06 07:15:32;;;;;;;8.13;3.35;;;;;;;;;;6286637;22;20007;-81
2023/10/06 07:17:58;;;;;;;7.75;3.58;;;;;;;;;;6264777;22;20015;-79
2023/10/06 07:20:29;;;;;;;7.35;3.13;;;;;;;;;;6288548;22;20353;-79
2023/10/06 07:22:56;;;;;;;7.85;4.35;;;;;;;;;;6288443;22;20007;-79
2023/10/06 07:25:24;;;;;;;7.43;3.83;;;;;;;;;;6287493;22;20022;-79
2023/10/06 07:27:50;;;;;;;4.78;3.30;;;;;;;;;;6287926;22;20015;-79
2023/10/06 07:30:20;;;;;;;5.22;3.03;;;;;;;;;;6287850;22;20069;-79
2023/10/06 07:32:46;;;;;;;5.50;2.92;;;;;;;;;;6318109;22;20007;-79
2023/10/06 07:35:13;;;;;;;6.72;2.97;;;;;;;;;;6318721;22;20011;-79
2023/10/06 07:37:42;;;;;;;6.32;3.28;;;;;;;;;;6316656;22;20015;-79
2023/10/06 07:40:13;;;;;;;8.30;3.50;;;;;;;;;;6317722;22;20389;-79
2023/10/06 07:42:43;;;;;;;6.80;3.08;;;;;;;;;;6317938;22;20014;-79
2023/10/06 07:45:10;;;;;;;8.15;3.78;;;;;;;;;;6318332;22;20064;-79
2023/10/06 07:47:37;;;;;;;7.75;4.05;;;;;;;;;;6317925;22;20094;-79
2023/10/06 07:50:05;;;;;;;6.78;3.97;;;;;;;;;;6317927;22;20034;-79
2023/10/06 07:52:31;;;;;;;6.25;2.85;;;;;;;;;;6264204;22;20049;-79
2023/10/06 07:54:58;;;;;;;8.00;3.67;;;;;;;;;;6288609;22;20056;-79
2023/10/06 07:57:24;;;;;;;8.63;3.30;;;;;;;;;;6264590;22;20039;-79
2023/10/06 07:59:50;;;;;;;6.30;3.10;;;;;;;;;;6264740;22;20012;-79
2023/10/06 08:02:16;;;;;;;7.43;3.28;;;;;;;;;;6288195;22;20015;-79
2023/10/06 08:04:42;;;;;;;8.52;4.22;;;;;;;;;;6319455;22;20015;-79
2023/10/06 08:07:08;;;;;;;6.72;3.85;;;;;;;;;;6317739;22;20015;-79
2023/10/06 08:09:34;;;;;;;6.63;3.72;;;;;;;;;;6291687;22;20095;-79
2023/10/06 08:12:00;;;;;;;7.32;3.45;;;;;;;;;;6292781;22;20011;-79
2023/10/06 08:14:28;;;;;;;8.00;3.22;;;;;;;;;;6317638;22;20087;-80
2023/10/06 08:16:54;;;;;;;5.32;3.25;;;;;;;;;;6285596;22;20463;-79
2023/10/06 08:19:20;;;;;;;7.63;3.60;;;;;;;;;;6314207;22;20041;-79
2023/10/06 08:21:46;;;;;;;7.15;3.72;;;;;;;;;;6312964;22;20011;-79
2023/10/06 08:24:12;;;;;;;5.65;3.58;;;;;;;;;;6312095;22;20019;-79
2023/10/06 08:26:39;;;;;;;6.72;3.60;;;;;;;;;;6260004;22;20019;-79
2023/10/06 08:29:05;;;;;;;12.32;4.10;;;;;;;;;;6312186;22;20362;-79
2023/10/06 08:31:31;;;;;;;10.25;4.07;;;;;;;;;;6287158;22;20049;-79
2023/10/06 08:34:04;;;;;;;7.75;3.67;;;;;;;;;;6313259;22;20015;-79
2023/10/06 08:36:30;;;;;;;6.85;3.65;;;;;;;;;;6286876;22;20023;-79
2023/10/06 08:38:57;;;;;;;8.85;4.13;;;;;;;;;;6312499;22;20007;-79
2023/10/06 08:41:26;;;;;;;6.45;3.42;;;;;;;;;;6313634;22;20026;-79
2023/10/06 08:43:53;;;;;;;6.90;3.72;;;;;;;;;;6314884;22;20063;-79
2023/10/06 08:46:20;;;;;;;9.55;3.92;;;;;;;;;;6312887;22;20012;-80
2023/10/06 08:48:46;;;;;;;6.40;3.63;;;;;;;;;;6287025;22;20044;-80
2023/10/06 08:51:14;;;;;;;10.35;4.22;;;;;;;;;;6286438;22;20043;-79
2023/10/06 08:53:41;;;;;;;8.13;3.67;;;;;;;;;;6285523;22;20068;-79
2023/10/06 08:56:07;;;;;;;9.65;4.20;;;;;;;;;;6287081;22;20015;-79
2023/10/06 08:58:35;;;;;;;8.43;4.07;;;;;;;;;;6286161;22;20019;-79
2023/10/06 09:01:04;;;;;;;8.40;4.28;;;;;;;;;;6285893;22;20078;-79
2023/10/06 09:03:30;;;;;;;7.40;4.15;;;;;;;;;;6287223;22;20404;-79
2023/10/06 09:05:56;;;;;;;6.70;3.20;;;;;;;;;;6313815;22;20011;-79
2023/10/06 09:08:23;;;;;;;5.25;3.38;;;;;;;;;;6288553;22;20022;-79
2023/10/06 09:10:50;;;;;;;7.55;3.55;;;;;;;;;;6288207;22;20055;-79
2023/10/06 09:13:18;;;;;;;7.18;3.60;;;;;;;;;;6321003;22;20377;-79
2023/10/06 09:15:55;;;;;;;7.93;4.15;;;;;;;;;;6325861;22;20018;-79
2023/10/06 09:18:27;;;;;;;7.13;3.55;;;;;;;;;;6324275;22;20019;-79
2023/10/06 09:20:54;;;;;;;7.03;4.40;;;;;;;;;;6297399;22;20026;-79
2023/10/06 09:23:30;;;;;;;7.15;3.95;;;;;;;;;;6322598;22;20026;-79
2023/10/06 09:25:57;;;;;;;7.63;3.55;;;;;;;;;;6296295;22;20046;-79
2023/10/06 09:28:23;;;;;;;7.80;3.90;;;;;;;;;;6294665;22;20015;-79
2023/10/06 09:31:05;;;;;;;6.95;3.60;;;;;;;;;;6289255;22;20025;-79
2023/10/06 09:33:40;;;;;;;7.35;4.20;;;;;;;;;;6291382;22;20015;-79
2023/10/06 09:36:07;;;;;;;6.65;4.75;;;;;;;;;;6288657;22;20015;-79
2023/10/06 09:38:36;;;;;;;5.15;3.60;;;;;;;;;;6315526;22;20015;-79
2023/10/06 09:41:03;;;;;;;6.75;4.32;;;;;;;;;;6316585;22;20030;-79
2023/10/06 09:43:33;;;;;;;6.38;3.80;;;;;;;;;;6319525;22;20019;-80
2023/10/06 09:46:02;;;;;;;10.20;4.20;;;;;;;;;;6318026;22;20087;-79
2023/10/06 09:48:33;;;;;;;6.82;3.53;;;;;;;;;;6290021;22;20023;-79
2023/10/06 09:51:01;;;;;;;5.95;3.65;;;;;;;;;;6288949;22;20084;-79
2023/10/06 09:53:27;;;;;;;8.63;4.00;;;;;;;;;;6316892;22;20027;-79
2023/10/06 09:55:53;;;;;;;8.15;3.78;;;;;;;;;;6318161;22;20035;-79
2023/10/06 09:58:20;;;;;;;8.40;5.00;;;;;;;;;;6317331;22;20019;-80
2023/10/06 10:00:46;;;;;;;7.53;3.88;;;;;;;;;;6289212;22;20078;-80
2023/10/06 10:03:12;;;;;;;8.07;3.65;;;;;;;;;;6287466;22;20113;-79
2023/10/06 10:05:38;;;;;;;6.47;3.60;;;;;;;;;;6313771;22;20022;-79
2023/10/06 10:08:05;;;;;;;8.70;4.35;;;;;;;;;;6317640;22;20341;-79
2023/10/06 10:10:33;;;;;;;7.03;3.75;;;;;;;;;;6318117;22;20018;-79
2023/10/06 10:13:07;;;;;;;4.95;3.13;;;;;;;;;;6319443;22;20019;-79
2023/10/06 10:15:52;;;;;;;7.80;3.45;;;;;;;;;;6319883;22;20015;-79
2023/10/06 10:18:25;;;;;;;6.82;3.30;;;;;;;;;;6318390;22;20007;-79
2023/10/06 10:20:52;;;;;;;7.18;3.50;;;;;;;;;;6317012;22;20007;-79
2023/10/06 10:23:18;;;;;;;8.93;3.72;;;;;;;;;;6318203;22;20015;-79
2023/10/06 10:25:45;;;;;;;6.15;3.63;;;;;;;;;;6319337;22;20015;-80
2023/10/06 10:28:17;;;;;;;10.52;3.60;;;;;;;;;;6320351;22;20034;-80
2023/10/06 10:30:59;;;;;;;8.15;3.03;;;;;;;;;;6294286;22;20015;-79
2023/10/06 10:33:30;;;;;;;5.50;2.75;;;;;;;;;;6295674;22;20047;-79
2023/10/06 10:36:17;;;;;;;9.25;3.58;;;;;;;;;;6296875;22;20067;-79
2023/10/06 10:38:57;;;;;;;6.50;3.05;;;;;;;;;;6298682;22;20014;-80
2023/10/06 10:41:27;;;;;;;7.07;2.78;;;;;;;;;;6295388;22;20015;-80
2023/10/06 10:43:55;;;;;;;4.53;2.70;;;;;;;;;;6295725;22;20022;-80
2023/10/06 10:46:52;;;;;;;8.63;3.20;;;;;;;;;;6294723;22;20023;-80
2023/10/06 10:49:19;;;;;;;6.10;3.88;;;;;;;;;;6272873;22;20012;-80
2023/10/06 10:51:55;;;;;;;7.20;3.20;;;;;;;;;;6324773;22;20008;-80
2023/10/06 10:54:32;;;;;;;6.75;3.15;;;;;;;;;;6323820;22;20006;-79
2023/10/06 10:57:05;;;;;;;4.47;3.40;;;;;;;;;;6321103;22;20078;-80
2023/10/06 10:59:50;;;;;;;5.97;2.70;;;;;;;;;;6322889;22;20034;-80
2023/10/06 11:02:16;;;;;;;9.63;3.53;;;;;;;;;;6295267;22;20444;-79
2023/10/06 11:04:45;;;;;;;5.25;2.60;;;;;;;;;;6298856;22;20015;-79
2023/10/06 11:07:15;;;;;;;5.72;2.65;;;;;;;;;;6272397;22;20011;-79
2023/10/06 11:09:47;;;;;;;7.78;3.10;;;;;;;;;;6301769;22;20066;-81
2023/10/06 11:12:20;;;;;;;8.10;3.22;;;;;;;;;;6255840;22;20015;-80
2023/10/06 11:22:53;;;;;;;5.13;2.97;;;;;;;;;;6311980;22;20428;-80
2023/10/06 11:25:26;;;;;;;5.57;2.28;;;;;;;;;;6238829;22;20031;-80
2023/10/06 11:28:12;;;;;;;4.85;2.90;;;;;;;;;;6264556;23;20468;-81
2023/10/06 11:30:39;;;;;;;4.47;2.30;;;;;;;;;;6263771;23;20036;-80
2023/10/06 11:33:06;;;;;;;5.28;2.88;;;;;;;;;;6234426;23;20011;-83
2023/10/06 11:35:33;;;;;;;6.47;2.83;;;;;;;;;;6260896;23;20027;-82
2023/10/06 11:38:00;;;;;;;8.10;3.58;;;;;;;;;;6261158;23;20016;-80
2023/10/06 11:40:27;;;;;;;6.88;3.20;;;;;;;;;;6235087;23;20091;-80
2023/10/06 11:42:54;;;;;;;6.15;3.30;;;;;;;;;;6258995;23;20065;-81
2023/10/06 11:45:24;;;;;;;6.95;3.20;;;;;;;;;;6259496;23;20064;-81
2023/10/06 11:47:51;;;;;;;8.90;3.35;;;;;;;;;;6251141;23;20066;-82
2023/10/06 11:52:48;;;;;;;6.95;3.00;;;;;;;;;;6288659;22;20020;-80
2023/10/06 11:55:22;;;;;;;6.25;3.88;;;;;;;;;;6236708;22;20027;-80
2023/10/06 11:57:51;;;;;;;6.35;3.15;;;;;;;;;;6263560;22;20012;-87
2023/10/06 12:00:18;;;;;;;5.43;3.03;;;;;;;;;;6238614;22;20022;-81
2023/10/06 12:02:45;;;;;;;8.48;3.78;;;;;;;;;;6262544;22;20018;-82
2023/10/06 12:05:13;;;;;;;5.28;2.85;;;;;;;;;;6250597;22;20020;-84
2023/10/06 12:07:39;;;;;;;6.90;3.10;;;;;;;;;;6255032;22;20050;-81
2023/10/06 12:10:06;;;;;;;5.82;3.10;;;;;;;;;;6289985;22;20015;-81
2023/10/06 12:12:32;;;;;;;9.45;3.47;;;;;;;;;;6255608;22;20321;-83
2023/10/06 12:14:58;;;;;;;7.43;2.88;;;;;;;;;;6255367;22;20051;-83
2023/10/06 12:17:27;;;;;;;5.82;2.60;;;;;;;;;;6254461;22;20015;-82
2023/10/06 12:19:53;;;;;;;6.15;3.08;;;;;;;;;;6230575;22;20016;-83
2023/10/06 12:22:20;;;;;;;6.93;3.42;;;;;;;;;;6258917;22;20012;-81
2023/10/06 12:24:46;;;;;;;6.72;3.10;;;;;;;;;;6286658;22;20020;-81
2023/10/06 12:27:17;;;;;;;5.80;3.20;;;;;;;;;;6261042;22;20048;-81
2023/10/06 12:29:44;;;;;;;4.50;2.70;;;;;;;;;;6286124;22;20456;-82
2023/10/06 12:32:10;;;;;;;6.95;3.10;;;;;;;;;;6286986;22;20042;-81
2023/10/06 12:34:37;;;;;;;9.65;3.38;;;;;;;;;;6289471;22;20065;-81
2023/10/06 12:37:03;;;;;;;8.20;3.70;;;;;;;;;;6288008;22;20730;-82
2023/10/06 12:39:35;;;;;;;6.95;2.90;;;;;;;;;;6287044;22;20024;-82
2023/10/06 12:42:03;;;;;;;10.68;4.25;;;;;;;;;;6286916;22;20011;-81
2023/10/06 12:44:29;;;;;;;4.78;2.05;;;;;;;;;;6290005;22;20039;-82
2023/10/06 12:46:56;;;;;;;5.85;2.83;;;;;;;;;;6287550;22;20023;-80
2023/10/06 12:49:23;;;;;;;7.70;3.20;;;;;;;;;;6291328;22;20020;-81
2023/10/06 12:51:49;;;;;;;4.55;3.00;;;;;;;;;;6287668;22;20015;-81
2023/10/06 12:54:16;;;;;;;7.03;2.65;;;;;;;;;;6287788;22;20015;-81
2023/10/06 12:56:44;;;;;;;6.68;2.83;;;;;;;;;;6287202;22;20130;-82
2023/10/06 12:59:13;;;;;;;7.22;2.85;;;;;;;;;;6261323;22;20015;-81
2023/10/06 13:01:39;;;;;;;7.43;3.22;;;;;;;;;;6260555;22;20015;-81
2023/10/06 13:04:05;;;;;;;4.32;2.38;;;;;;;;;;6259704;22;20019;-81
2023/10/06 13:06:32;;;;;;;4.72;2.63;;;;;;;;;;6259356;22;20022;-80
2023/10/06 13:09:02;;;;;;;4.25;2.60;;;;;;;;;;6287522;22;20015;-80
2023/10/06 13:11:31;;;;;;;6.28;3.17;;;;;;;;;;6260270;22;20082;-80
2023/10/06 13:13:57;;;;;;;9.30;3.60;;;;;;;;;;6258255;22;20008;-80
2023/10/06 13:16:24;;;;;;;9.05;2.80;;;;;;;;;;6259922;22;20016;-81
2023/10/06 13:18:50;;;;;;;7.78;2.97;;;;;;;;;;6262248;22;20011;-82
2023/10/06 13:21:16;;;;;;;6.28;2.47;;;;;;;;;;6255937;22;20022;-82
2023/10/06 13:23:45;;;;;;;7.13;3.30;;;;;;;;;;6232951;22;20011;-82
2023/10/06 13:26:11;;;;;;;6.10;2.72;;;;;;;;;;6261197;22;20016;-81
2023/10/06 13:28:40;;;;;;;4.25;2.55;;;;;;;;;;6235819;22;20014;-81
2023/10/06 13:31:07;;;;;;;4.65;2.60;;;;;;;;;;6237805;22;20041;-81
2023/10/06 13:33:34;;;;;;;6.18;2.80;;;;;;;;;;6237295;22;20095;-82
2023/10/06 13:36:00;;;;;;;6.95;2.75;;;;;;;;;;6265044;22;20012;-82
2023/10/06 13:38:26;;;;;;;8.10;3.03;;;;;;;;;;6265253;22;20064;-81
2023/10/06 13:40:53;;;;;;;6.55;2.60;;;;;;;;;;6259783;22;20016;-81
2023/10/06 13:43:20;;;;;;;6.18;2.53;;;;;;;;;;6261768;22;20027;-81
2023/10/06 13:45:46;;;;;;;4.25;2.45;;;;;;;;;;6261325;22;20446;-81
2023/10/06 13:48:15;;;;;;;5.80;2.30;;;;;;;;;;6261948;22;20016;-81
2023/10/06 13:50:41;;;;;;;7.70;2.75;;;;;;;;;;6234824;22;20082;-82
2023/10/06 13:53:08;;;;;;;4.57;2.10;;;;;;;;;;6260915;22;20042;-81
2023/10/06 13:55:35;;;;;;;4.57;2.53;;;;;;;;;;6232766;22;20023;-81
2023/10/06 13:58:04;;;;;;;6.10;2.20;;;;;;;;;;6234313;22;20018;-82
2023/10/06 14:00:38;;;;;;;4.50;2.45;;;;;;;;;;6233775;22;20093;-82
2023/10/06 14:03:08;;;;;;;4.72;2.10;;;;;;;;;;6262685;22;20453;-81
2023/10/06 14:05:37;;;;;;;;;;;;;;;;;;6239117;22;20034;-82
2023/10/06 14:08:04;;;;;;;8.23;2.65;;;;;;;;;;6243011;22;19911;-81
2023/10/06 14:10:31;;;;;;;4.25;2.00;;;;;;;;;;6267020;22;20012;-82
2023/10/06 14:13:05;;;;;;;6.80;2.60;;;;;;;;;;6267586;22;20012;-82
2023/10/06 14:18:07;;;;;;;4.50;2.17;;;;;;;;;;6300910;22;20026;-83
2023/10/06 14:20:33;;;;;;;6.90;2.55;;;;;;;;;;6271352;22;20344;-82
2023/10/06 14:23:00;;;;;;;6.88;2.35;;;;;;;;;;6270269;22;20011;-82
2023/10/06 14:28:07;;;;;;;5.05;1.77;;;;;;;;;;6310488;22;20084;-82
2023/10/06 14:30:35;;;;;;;6.90;2.50;;;;;;;;;;6270574;22;20043;-82
2023/10/06 14:35:45;;;;;;;5.70;1.92;;;;;;;;;;6296592;22;20026;-82
2023/10/06 14:46:51;;;;;;;5.75;2.38;;;;;;;;;;6296645;22;20024;-79
2023/10/06 14:49:27;;;;;;;3.78;1.33;;;;;;;;;;6291272;22;20460;-82
2023/10/06 14:51:56;;;;;;;;;;;;;;;;;;6262012;22;20106;-82
2023/10/06 14:54:25;;;;;;;6.07;1.85;;;;;;;;;;6267428;22;19922;-81
2023/10/06 14:56:53;;;;;;;4.43;1.65;;;;;;;;;;6269339;22;20018;-81
2023/10/06 14:59:21;;;;;;;7.97;2.35;;;;;;;;;;6267636;22;20012;-81
2023/10/06 15:01:49;;;;;;;5.72;1.98;;;;;;;;;;6268833;22;20347;-80
2023/10/06 15:04:19;;;;;;;10.48;2.35;;;;;;;;;;6299003;22;20016;-80
2023/10/06 15:06:45;;;;;;;4.40;1.88;;;;;;;;;;6297842;22;20050;-80
2023/10/06 15:09:17;;;;;;;6.15;2.13;;;;;;;;;;6300353;22;20067;-80
2023/10/06 15:11:50;;;;;;;3.90;1.63;;;;;;;;;;6327642;22;20520;-80
2023/10/06 15:14:18;;;;;;;10.98;2.60;;;;;;;;;;6297990;22;20023;-81
2023/10/06 15:16:44;;;;;;;5.55;2.10;;;;;;;;;;6326079;22;20022;-81
2023/10/06 15:19:11;;;;;;;3.97;1.50;;;;;;;;;;6272426;22;20016;-81
2023/10/06 15:21:41;;;;;;;4.38;1.70;;;;;;;;;;6258553;22;20023;-80
2023/10/06 15:24:10;;;;;;;;;;;;;;;;;;6281488;22;20027;-81
2023/10/06 15:26:37;;;;;;;7.43;2.25;;;;;;;;;;6295779;22;19915;-80
2023/10/06 15:29:07;;;;;;;9.60;2.13;;;;;;;;;;6295032;22;20036;-80
2023/10/06 15:31:33;;;;;;;5.30;2.00;;;;;;;;;;6324686;22;20025;-80
2023/10/06 15:34:00;;;;;;;4.97;2.38;;;;;;;;;;6297963;22;20057;-80
2023/10/06 15:36:26;;;;;;;6.07;1.75;;;;;;;;;;6325621;22;20015;-86
2023/10/06 15:38:53;;;;;;;7.03;2.00;;;;;;;;;;6253945;22;20049;-81